Station History

Weather Underground - logo

Station Historical Data
Daily Summary for August 14, 2017 Units:  English    Metric   Both
« Previous Day
Next Day »
Daily Weekly Monthly Yearly Custom
  High: Low: Average:
Temperature: TemperatureF °F 61.3 °F 79.4 °F
Dew Point: DewpointF °F 53.8 °F 58.2 °F
Humidity: Humidity % 31 % 50 %
Wind Speed: WindSpeedMPH mph 0.0 mph 1.5 mph
Wind Gust: WindSpeedGustMPH mph - -
Wind:- - SW
Pressure: PressureIn in 29.66 in -
Precipitation: 0.00 in    
Historical Graphs
 
 
Tabular Data for August 14, 2017
Time Temperature Dew Point Pressure Wind Wind Speed Wind Gust Humidity Rainfall Rate (Hourly)
TemperatureF °F DewpointF °F PressureIn in Calm     Humidity % HourlyPrecipIn in
00:03 76.3 °F 56.3 °F 29.77 in NW 1.2 mph 1.2 mph 50 % 0.00 in
00:08 76.2 °F 56.7 °F 29.77 in NW 1.0 mph 1.0 mph 51 % 0.00 in
00:10 76.2 °F 56.2 °F 29.77 in NW 1.2 mph 1.2 mph 50 % 0.00 in
00:15 76.2 °F 56.2 °F 29.76 in NW 1.2 mph 1.2 mph 50 % 0.00 in
00:20 76.1 °F 56.7 °F 29.76 in Calm   0.1 mph 51 % 0.00 in
00:25 76.1 °F 56.7 °F 29.77 in Calm   0.1 mph 51 % 0.00 in
00:30 76.1 °F 56.7 °F 29.76 in Calm     51 % 0.00 in
00:35 75.9 °F 56.5 °F 29.77 in NW 1.0 mph   51 % 0.00 in
00:40 75.9 °F 57.0 °F 29.76 in NNW 1.2 mph 1.2 mph 52 % 0.00 in
00:45 75.9 °F 57.0 °F 29.76 in NW 2.0 mph 2.0 mph 52 % 0.00 in
00:50 75.8 °F 56.9 °F 29.76 in NW 1.2 mph 1.2 mph 52 % 0.00 in
00:55 75.6 °F 57.3 °F 29.76 in NW 2.3 mph 2.3 mph 53 % 0.00 in
01:00 75.5 °F 57.2 °F 29.76 in NW 1.2 mph 1.2 mph 53 % 0.00 in
01:02 75.4 °F 57.1 °F 29.76 in NW 1.2 mph 1.2 mph 53 % 0.00 in
01:07 75.0 °F 57.7 °F 29.76 in Calm     55 % 0.00 in
01:12 74.6 °F 57.4 °F 29.76 in NW 1.2 mph   55 % 0.00 in
01:17 74.1 °F 57.4 °F 29.76 in Calm     56 % 0.00 in
01:22 73.5 °F 57.8 °F 29.76 in Calm     58 % 0.00 in
01:27 72.9 °F 57.7 °F 29.76 in Calm     59 % 0.00 in
01:32 72.6 °F 57.9 °F 29.76 in Calm     60 % 0.00 in
01:37 72.2 °F 58.0 °F 29.76 in Calm     61 % 0.00 in
01:42 71.5 °F 57.8 °F 29.76 in Calm     62 % 0.00 in
01:47 71.1 °F 58.7 °F 29.76 in Calm     65 % 0.00 in
01:49 71.0 °F 58.6 °F 29.76 in Calm     65 % 0.00 in
01:54 71.1 °F 57.9 °F 29.76 in Calm     63 % 0.00 in
01:59 71.3 °F 57.6 °F 29.76 in NW 1.2 mph 1.2 mph 62 % 0.00 in
02:04 71.4 °F 57.2 °F 29.75 in NW 1.2 mph   61 % 0.00 in
02:09 71.4 °F 57.7 °F 29.76 in Calm     62 % 0.00 in
02:14 71.1 °F 57.9 °F 29.76 in Calm     63 % 0.00 in
02:19 70.8 °F 57.1 °F 29.76 in Calm     62 % 0.00 in
02:24 70.8 °F 56.7 °F 29.76 in Calm     61 % 0.00 in
02:29 70.7 °F 57.9 °F 29.76 in Calm     64 % 0.00 in
02:34 70.4 °F 57.6 °F 29.76 in Calm     64 % 0.00 in
02:39 70.4 °F 56.8 °F 29.76 in Calm     62 % 0.00 in
02:44 70.7 °F 56.6 °F 29.76 in Calm     61 % 0.00 in
02:49 70.7 °F 57.0 °F 29.76 in NW 1.2 mph   62 % 0.00 in
02:55 70.7 °F 56.1 °F 29.76 in NW 1.2 mph 1.2 mph 60 % 0.00 in
03:00 71.0 °F 55.5 °F 29.77 in Calm   0.4 mph 58 % 0.00 in
03:05 71.3 °F 55.3 °F 29.77 in NW 1.2 mph 1.2 mph 57 % 0.00 in
03:10 71.3 °F 55.3 °F 29.77 in WNW 1.2 mph 1.2 mph 57 % 0.00 in
03:15 71.2 °F 55.2 °F 29.77 in Calm     57 % 0.00 in
03:20 71.0 °F 55.0 °F 29.77 in NW 2.0 mph 2.0 mph 57 % 0.00 in
03:25 70.7 °F 54.2 °F 29.77 in WNW 1.2 mph   56 % 0.00 in
03:30 70.5 °F 54.5 °F 29.76 in Calm     57 % 0.00 in
03:35 70.3 °F 54.8 °F 29.76 in Calm     58 % 0.00 in
03:40 70.0 °F 54.5 °F 29.77 in Calm     58 % 0.00 in
03:45 69.6 °F 55.1 °F 29.77 in Calm     60 % 0.00 in
03:50 69.1 °F 55.5 °F 29.77 in Calm     62 % 0.00 in
03:55 68.4 °F 55.3 °F 29.77 in WNW 1.2 mph   63 % 0.00 in
04:00 67.7 °F 55.5 °F 29.77 in Calm     65 % 0.00 in
04:05 67.1 °F 55.4 °F 29.77 in WNW 1.2 mph   66 % 0.00 in
04:10 66.4 °F 55.1 °F 29.77 in Calm     67 % 0.00 in
04:15 65.9 °F 55.4 °F 29.77 in WNW 1.2 mph   69 % 0.00 in
04:20 65.4 °F 55.7 °F 29.77 in Calm     71 % 0.00 in
04:25 65.0 °F 56.1 °F 29.77 in Calm     73 % 0.00 in
04:30 64.7 °F 56.2 °F 29.77 in WNW 1.2 mph   74 % 0.00 in
04:35 64.5 °F 56.0 °F 29.77 in Calm     74 % 0.00 in
04:40 64.2 °F 56.1 °F 29.77 in Calm     75 % 0.00 in
04:45 64.1 °F 56.0 °F 29.77 in Calm     75 % 0.00 in
04:50 64.0 °F 55.9 °F 29.77 in Calm     75 % 0.00 in
04:55 63.9 °F 55.4 °F 29.77 in Calm     74 % 0.00 in
05:00 64.0 °F 55.5 °F 29.77 in Calm     74 % 0.00 in
05:05 63.9 °F 55.4 °F 29.78 in Calm     74 % 0.00 in
05:10 63.8 °F 55.7 °F 29.78 in Calm     75 % 0.00 in
05:15 63.5 °F 55.4 °F 29.78 in Calm     75 % 0.00 in
05:20 63.1 °F 55.4 °F 29.78 in NNW 1.2 mph 1.2 mph 76 % 0.00 in
05:25 62.6 °F 54.9 °F 29.78 in Calm     76 % 0.00 in
05:30 62.5 °F 55.2 °F 29.78 in NNW 1.2 mph 1.2 mph 77 % 0.00 in
05:35 62.4 °F 55.4 °F 29.78 in NNW 2.3 mph 2.3 mph 78 % 0.00 in
05:40 62.3 °F 55.4 °F 29.78 in NNW 1.2 mph 1.2 mph 78 % 0.00 in
05:45 62.2 °F 55.3 °F 29.78 in NNW 1.2 mph 1.2 mph 78 % 0.00 in
05:50 62.0 °F 55.1 °F 29.78 in Calm   0.1 mph 78 % 0.00 in
05:55 61.9 °F 55.3 °F 29.78 in Calm     79 % 0.00 in
06:00 61.7 °F 55.1 °F 29.78 in Calm     79 % 0.00 in
06:05 61.7 °F 55.1 °F 29.79 in Calm   0.1 mph 79 % 0.00 in
06:10 61.6 °F 55.4 °F 29.79 in Calm     80 % 0.00 in
06:15 61.6 °F 55.4 °F 29.79 in Calm     80 % 0.00 in
06:21 61.5 °F 55.3 °F 29.80 in Calm     80 % 0.00 in
06:26 61.4 °F 55.2 °F 29.80 in Calm     80 % 0.00 in
06:31 61.4 °F 55.2 °F 29.80 in Calm     80 % 0.00 in
06:36 61.3 °F 55.1 °F 29.80 in Calm     80 % 0.00 in
06:41 61.4 °F 55.2 °F 29.80 in NNW 1.2 mph   80 % 0.00 in
06:46 61.6 °F 55.0 °F 29.80 in NNW 1.2 mph   79 % 0.00 in
06:51 61.9 °F 55.0 °F 29.80 in NNW 1.2 mph   78 % 0.00 in
06:56 62.3 °F 55.4 °F 29.80 in Calm     78 % 0.00 in
07:01 62.6 °F 55.6 °F 29.80 in NNW 1.2 mph 1.2 mph 78 % 0.00 in
07:06 63.0 °F 55.7 °F 29.80 in NNW 1.2 mph 1.2 mph 77 % 0.00 in
07:11 63.4 °F 55.7 °F 29.80 in NNW 1.2 mph 1.2 mph 76 % 0.00 in
07:16 63.9 °F 55.4 °F 29.80 in Calm     74 % 0.00 in
07:21 64.5 °F 56.0 °F 29.80 in Calm     74 % 0.00 in
07:26 65.0 °F 56.1 °F 29.80 in North 1.2 mph 1.2 mph 73 % 0.00 in
07:31 66.3 °F 56.6 °F 29.81 in NNE 1.2 mph 1.2 mph 71 % 0.00 in
07:36 67.7 °F 56.8 °F 29.81 in SE 2.3 mph 2.3 mph 68 % 0.00 in
07:41 68.7 °F 56.9 °F 29.81 in ESE 1.2 mph 1.2 mph 66 % 0.00 in
07:46 69.5 °F 57.2 °F 29.81 in SE 3.5 mph 3.5 mph 65 % 0.00 in
07:51 70.2 °F 57.4 °F 29.81 in Calm     64 % 0.00 in
07:54 70.7 °F 57.5 °F 29.81 in SE 3.5 mph 3.5 mph 63 % 0.00 in
07:59 71.2 °F 57.5 °F 29.81 in ESE 1.2 mph   62 % 0.00 in
08:04 72.0 °F 57.8 °F 29.81 in SE 1.2 mph 1.2 mph 61 % 0.00 in
08:09 72.6 °F 57.9 °F 29.81 in SE 1.2 mph 1.2 mph 60 % 0.00 in
08:14 72.9 °F 57.7 °F 29.81 in SE 1.2 mph 1.2 mph 59 % 0.00 in
08:19 73.7 °F 58.5 °F 29.81 in Calm   0.2 mph 59 % 0.00 in
08:24 74.7 °F 58.5 °F 29.81 in Calm     57 % 0.00 in
08:29 75.1 °F 58.3 °F 29.81 in SE 1.2 mph 1.2 mph 56 % 0.00 in
08:34 75.7 °F 58.9 °F 29.81 in SE 3.5 mph 3.5 mph 56 % 0.00 in
08:39 76.1 °F 58.8 °F 29.81 in ESE 2.0 mph 2.0 mph 55 % 0.00 in
08:40 76.1 °F 58.8 °F 29.81 in ESE 2.3 mph 2.3 mph 55 % 0.00 in
08:45 76.3 °F 58.9 °F 29.81 in NNW 1.2 mph 1.2 mph 55 % 0.00 in
08:50 76.1 °F 59.3 °F 29.81 in Calm     56 % 0.00 in
08:55 76.3 °F 59.4 °F 29.81 in NNE 1.2 mph   56 % 0.00 in
09:00 76.8 °F 59.4 °F 29.81 in SSE 3.5 mph 3.5 mph 55 % 0.00 in
09:05 76.7 °F 58.8 °F 29.81 in ENE 3.5 mph 3.5 mph 54 % 0.00 in
09:10 76.7 °F 59.8 °F 29.80 in SE 2.3 mph 2.3 mph 56 % 0.00 in
09:15 77.3 °F 59.9 °F 29.80 in SE 1.2 mph 1.2 mph 55 % 0.00 in
09:20 77.9 °F 60.9 °F 29.80 in SSW 5.0 mph 5.0 mph 56 % 0.00 in
09:25 78.2 °F 60.7 °F 29.80 in South 4.0 mph 4.0 mph 55 % 0.00 in
09:30 78.4 °F 60.4 °F 29.80 in South 4.0 mph 4.0 mph 54 % 0.00 in
09:35 78.6 °F 59.5 °F 29.80 in SE 3.5 mph 3.5 mph 52 % 0.00 in
09:40 78.9 °F 59.8 °F 29.80 in SSW 3.5 mph 3.5 mph 52 % 0.00 in
09:45 79.4 °F 60.2 °F 29.80 in SE 1.2 mph 1.2 mph 52 % 0.00 in
09:50 79.9 °F 59.0 °F 29.80 in ENE 4.0 mph 4.0 mph 49 % 0.00 in
09:51 79.9 °F 58.5 °F 29.80 in East 3.5 mph 3.5 mph 48 % 0.00 in
09:56 80.2 °F 59.3 °F 29.80 in South 3.5 mph 3.5 mph 49 % 0.00 in
10:01 80.4 °F 60.1 °F 29.80 in Calm     50 % 0.00 in
10:06 81.3 °F 60.3 °F 29.80 in ESE 2.3 mph 2.3 mph 49 % 0.00 in
10:11 82.0 °F 60.4 °F 29.80 in ESE 4.6 mph 4.6 mph 48 % 0.00 in
10:16 82.3 °F 60.6 °F 29.80 in West 2.3 mph 2.3 mph 48 % 0.00 in
10:21 82.5 °F 62.0 °F 29.80 in SE 2.3 mph 2.3 mph 50 % 0.00 in
10:26 82.5 °F 60.8 °F 29.80 in SSE 5.0 mph 5.0 mph 48 % 0.00 in
10:31 82.9 °F 61.8 °F 29.80 in SSE 2.3 mph 2.3 mph 49 % 0.00 in
10:36 83.8 °F 61.4 °F 29.80 in SE 2.3 mph 2.3 mph 47 % 0.00 in
10:41 84.1 °F 61.1 °F 29.80 in NW 2.3 mph 2.3 mph 46 % 0.00 in
10:46 84.0 °F 60.4 °F 29.80 in SE 3.5 mph 3.5 mph 45 % 0.00 in
10:51 83.8 °F 60.2 °F 29.80 in ESE 1.2 mph   45 % 0.00 in
10:56 83.8 °F 60.8 °F 29.80 in NNE 3.5 mph 3.5 mph 46 % 0.00 in
11:01 83.8 °F 62.6 °F 29.80 in East 1.2 mph 1.2 mph 49 % 0.00 in
11:06 84.1 °F 61.1 °F 29.79 in NW 2.3 mph 2.3 mph 46 % 0.00 in
11:11 83.9 °F 60.9 °F 29.79 in NW 2.3 mph 2.3 mph 46 % 0.00 in
11:16 84.2 °F 63.0 °F 29.79 in SSE 1.2 mph 1.2 mph 49 % 0.00 in
11:21 85.2 °F 62.1 °F 29.79 in SSE 2.3 mph 2.3 mph 46 % 0.00 in
11:26 84.9 °F 61.8 °F 29.79 in NW 1.2 mph 1.2 mph 46 % 0.00 in
11:31 84.4 °F 61.4 °F 29.79 in ENE 3.5 mph 3.5 mph 46 % 0.00 in
11:36 85.1 °F 61.4 °F 29.79 in WNW 2.3 mph 2.3 mph 45 % 0.00 in
11:41 85.2 °F 60.8 °F 29.79 in WNW 3.5 mph 3.5 mph 44 % 0.00 in
11:46 85.0 °F 61.9 °F 29.79 in NW 3.5 mph 3.5 mph 46 % 0.00 in
11:51 85.6 °F 62.4 °F 29.79 in SSE 1.2 mph 1.2 mph 46 % 0.00 in
11:56 86.9 °F 63.6 °F 29.79 in SW 3.5 mph 3.5 mph 46 % 0.00 in
12:01 87.1 °F 62.5 °F 29.79 in SSW 1.2 mph 1.3 mph 44 % 0.00 in
12:06 87.6 °F 62.3 °F 29.79 in SSE 2.3 mph 2.3 mph 43 % 0.00 in
12:11 88.0 °F 62.0 °F 29.78 in West 2.3 mph 2.3 mph 42 % 0.00 in
12:16 87.7 °F 63.1 °F 29.78 in South 1.2 mph   44 % 0.00 in
12:21 88.4 °F 63.7 °F 29.78 in SSE 1.2 mph 1.2 mph 44 % 0.00 in
12:26 88.0 °F 62.0 °F 29.78 in NW 3.5 mph 3.5 mph 42 % 0.00 in
12:28 87.7 °F 61.1 °F 29.78 in NNE 2.3 mph 2.3 mph 41 % 0.00 in
12:33 88.0 °F 63.4 °F 29.78 in SW 3.5 mph 3.5 mph 44 % 0.00 in
12:38 88.5 °F 61.8 °F 29.78 in WNW 2.3 mph 2.3 mph 41 % 0.00 in
12:43 88.8 °F 60.7 °F 29.77 in WNW 2.3 mph 2.3 mph 39 % 0.00 in
12:48 88.5 °F 63.8 °F 29.77 in NW 2.3 mph 2.3 mph 44 % 0.00 in
12:53 88.8 °F 60.7 °F 29.77 in NNW 3.5 mph 3.5 mph 39 % 0.00 in
12:58 88.5 °F 58.9 °F 29.77 in WNW 2.3 mph 2.3 mph 37 % 0.00 in
13:03 88.9 °F 62.2 °F 29.77 in NNW 1.2 mph 1.2 mph 41 % 0.00 in
13:08 89.3 °F 61.8 °F 29.76 in NW 1.2 mph 1.2 mph 40 % 0.00 in
13:13 89.9 °F 63.0 °F 29.76 in ENE 2.0 mph 2.0 mph 41 % 0.00 in
13:18 90.3 °F 62.7 °F 29.76 in South 2.3 mph 2.3 mph 40 % 0.00 in
13:23 90.9 °F 60.3 °F 29.76 in SW 2.3 mph 2.3 mph 36 % 0.00 in
13:28 91.0 °F 61.1 °F 29.75 in North 3.0 mph 3.0 mph 37 % 0.00 in
13:33 91.1 °F 61.2 °F 29.75 in NNE 1.2 mph 1.4 mph 37 % 0.00 in
13:38 91.2 °F 59.7 °F 29.75 in NW 3.5 mph 3.5 mph 35 % 0.00 in
13:43 91.1 °F 58.8 °F 29.75 in WNW 3.5 mph 3.5 mph 34 % 0.00 in
13:48 91.5 °F 60.8 °F 29.74 in South 3.5 mph 3.5 mph 36 % 0.00 in
13:53 91.7 °F 61.0 °F 29.74 in East 1.2 mph 1.2 mph 36 % 0.00 in
13:58 92.1 °F 61.3 °F 29.74 in West 2.0 mph 2.0 mph 36 % 0.00 in
14:03 91.9 °F 58.7 °F 29.73 in NW 3.5 mph 3.5 mph 33 % 0.00 in
14:08 91.3 °F 60.6 °F 29.73 in ENE 3.5 mph 3.5 mph 36 % 0.00 in
14:13 91.9 °F 61.1 °F 29.73 in NW 2.3 mph 2.3 mph 36 % 0.00 in
14:18 92.1 °F 58.9 °F 29.73 in ESE 1.2 mph 1.2 mph 33 % 0.00 in
14:23 92.5 °F 61.7 °F 29.72 in SSE 3.5 mph 3.5 mph 36 % 0.00 in
14:28 93.0 °F 60.5 °F 29.72 in North 1.2 mph 1.2 mph 34 % 0.00 in
14:33 93.3 °F 60.7 °F 29.72 in ESE 3.5 mph 3.5 mph 34 % 0.00 in
14:38 93.4 °F 60.0 °F 29.72 in SSW 2.3 mph 2.3 mph 33 % 0.00 in
14:43 93.4 °F 61.7 °F 29.72 in NE 1.2 mph 1.2 mph 35 % 0.00 in
14:48 93.6 °F 59.3 °F 29.72 in NNW 4.0 mph 4.0 mph 32 % 0.00 in
14:54 93.8 °F 61.2 °F 29.72 in ESE 1.2 mph   34 % 0.00 in
14:59 93.7 °F 60.3 °F 29.72 in NW 1.2 mph 1.2 mph 33 % 0.00 in
15:04 93.1 °F 60.6 °F 29.72 in SSW 3.5 mph 3.5 mph 34 % 0.00 in
15:09 93.2 °F 59.8 °F 29.72 in SSE 1.2 mph 1.2 mph 33 % 0.00 in
15:14 93.1 °F 60.6 °F 29.72 in SE 1.2 mph 1.2 mph 34 % 0.00 in
15:19 92.8 °F 57.7 °F 29.72 in Calm     31 % 0.00 in
15:24 93.1 °F 59.7 °F 29.71 in WNW 1.2 mph 1.2 mph 33 % 0.00 in
15:29 93.2 °F 59.0 °F 29.71 in NNW 3.5 mph 3.5 mph 32 % 0.00 in
15:34 92.7 °F 60.2 °F 29.71 in ENE 3.5 mph 3.5 mph 34 % 0.00 in
15:39 93.3 °F 59.9 °F 29.71 in SSE 2.3 mph 2.3 mph 33 % 0.00 in
15:44 93.9 °F 61.3 °F 29.71 in SE 1.2 mph 1.2 mph 34 % 0.00 in
15:49 94.1 °F 61.4 °F 29.71 in North 2.3 mph 2.3 mph 34 % 0.00 in
15:54 93.5 °F 59.2 °F 29.70 in WNW 3.5 mph 3.5 mph 32 % 0.00 in
15:59 92.6 °F 60.1 °F 29.70 in WNW 3.5 mph 3.5 mph 34 % 0.00 in
16:04 92.5 °F 60.9 °F 29.70 in NE 1.2 mph   35 % 0.00 in
16:09 93.3 °F 60.7 °F 29.70 in WNW 3.5 mph 3.5 mph 34 % 0.00 in
16:14 93.2 °F 60.7 °F 29.70 in NW 2.3 mph 2.3 mph 34 % 0.00 in
16:19 93.4 °F 60.0 °F 29.70 in Calm   0.2 mph 33 % 0.00 in
16:24 93.8 °F 62.0 °F 29.70 in WNW 1.2 mph 1.2 mph 35 % 0.00 in
16:29 94.2 °F 60.7 °F 29.69 in East 3.5 mph 3.5 mph 33 % 0.00 in
16:30 94.2 °F 61.5 °F 29.69 in North 3.5 mph 3.5 mph 34 % 0.00 in
16:35 94.0 °F 61.4 °F 29.69 in NNE 1.2 mph 1.2 mph 34 % 0.00 in
16:40 94.2 °F 60.7 °F 29.69 in ESE 2.3 mph 2.3 mph 33 % 0.00 in
16:45 94.1 °F 60.6 °F 29.69 in East 1.2 mph 1.2 mph 33 % 0.00 in
16:50 93.8 °F 59.5 °F 29.69 in NW 1.2 mph 1.2 mph 32 % 0.00 in
16:55 93.4 °F 60.0 °F 29.69 in West 2.3 mph 2.3 mph 33 % 0.00 in
17:00 93.1 °F 58.9 °F 29.69 in NNW 1.2 mph 1.2 mph 32 % 0.00 in
17:05 93.2 °F 59.8 °F 29.68 in NNW 1.2 mph   33 % 0.00 in
17:10 93.9 °F 59.6 °F 29.68 in ESE 2.3 mph 2.3 mph 32 % 0.00 in
17:15 93.8 °F 59.5 °F 29.68 in NW 2.3 mph 2.3 mph 32 % 0.00 in
17:20 93.5 °F 59.2 °F 29.68 in NW 1.2 mph 1.2 mph 32 % 0.00 in
17:25 93.6 °F 59.3 °F 29.68 in SSE 2.3 mph 2.3 mph 32 % 0.00 in
17:30 94.2 °F 60.7 °F 29.68 in North 1.0 mph   33 % 0.00 in
17:35 94.0 °F 59.7 °F 29.68 in NW 1.2 mph   32 % 0.00 in
17:40 93.3 °F 59.9 °F 29.68 in NNW 2.3 mph 2.3 mph 33 % 0.00 in
17:45 92.8 °F 59.5 °F 29.68 in Calm     33 % 0.00 in
17:50 92.9 °F 59.6 °F 29.68 in NNW 1.2 mph   33 % 0.00 in
17:55 93.1 °F 60.6 °F 29.67 in Calm     34 % 0.00 in
18:00 92.6 °F 61.7 °F 29.67 in Calm     36 % 0.00 in
18:05 92.6 °F 61.0 °F 29.67 in Calm   0.3 mph 35 % 0.00 in
18:10 92.8 °F 59.5 °F 29.67 in ENE 1.2 mph 1.2 mph 33 % 0.00 in
18:15 93.2 °F 59.0 °F 29.67 in NW 1.2 mph 1.2 mph 32 % 0.00 in
18:20 93.4 °F 58.2 °F 29.67 in West 1.2 mph 1.2 mph 31 % 0.00 in
18:25 93.4 °F 60.0 °F 29.67 in WSW 2.3 mph   33 % 0.00 in
18:30 93.3 °F 59.0 °F 29.67 in Calm   0.4 mph 32 % 0.00 in
18:35 93.1 °F 59.7 °F 29.67 in Calm     33 % 0.00 in
18:40 92.9 °F 59.6 °F 29.67 in WNW 1.2 mph 1.2 mph 33 % 0.00 in
18:45 92.2 °F 58.9 °F 29.66 in SW 1.2 mph 1.2 mph 33 % 0.00 in
18:50 91.4 °F 59.9 °F 29.66 in Calm     35 % 0.00 in
18:56 90.5 °F 58.3 °F 29.67 in WNW 2.3 mph 2.3 mph 34 % 0.00 in
18:58 90.1 °F 58.0 °F 29.67 in NW 2.3 mph 2.3 mph 34 % 0.00 in
19:03 89.5 °F 59.0 °F 29.67 in WNW 1.2 mph 1.2 mph 36 % 0.00 in
19:08 88.8 °F 58.4 °F 29.67 in NW 1.2 mph 1.2 mph 36 % 0.00 in
19:13 88.2 °F 58.6 °F 29.67 in NW 1.2 mph 1.2 mph 37 % 0.00 in
19:18 87.7 °F 57.4 °F 29.67 in WNW 1.2 mph   36 % 0.00 in
19:23 87.2 °F 59.2 °F 29.67 in WNW 1.2 mph   39 % 0.00 in
19:28 86.6 °F 58.0 °F 29.67 in WNW 1.2 mph   38 % 0.00 in
19:33 86.2 °F 58.3 °F 29.67 in WNW 1.2 mph   39 % 0.00 in
19:38 85.8 °F 58.7 °F 29.67 in Calm     40 % 0.00 in
19:43 85.4 °F 59.0 °F 29.68 in Calm     41 % 0.00 in
19:48 85.1 °F 58.8 °F 29.67 in Calm     41 % 0.00 in
19:53 84.7 °F 59.7 °F 29.67 in Calm     43 % 0.00 in
19:58 84.3 °F 59.4 °F 29.67 in Calm     43 % 0.00 in
20:03 84.1 °F 59.8 °F 29.67 in Calm     44 % 0.00 in
20:08 83.8 °F 60.2 °F 29.67 in Calm     45 % 0.00 in
20:13 83.5 °F 59.9 °F 29.68 in Calm     45 % 0.00 in
20:18 83.3 °F 61.0 °F 29.68 in Calm     47 % 0.00 in
20:23 83.3 °F 59.7 °F 29.68 in Calm     45 % 0.00 in
20:27 83.0 °F 60.1 °F 29.68 in NW 1.2 mph 1.2 mph 46 % 0.00 in
20:32 82.7 °F 61.0 °F 29.68 in Calm   0.3 mph 48 % 0.00 in
20:37 82.3 °F 61.2 °F 29.68 in Calm   0.4 mph 49 % 0.00 in
20:43 82.0 °F 61.5 °F 29.68 in WNW 1.2 mph   50 % 0.00 in
20:48 81.6 °F 62.3 °F 29.68 in WNW 1.2 mph   52 % 0.00 in
20:53 81.3 °F 62.5 °F 29.68 in NW 2.0 mph 2.0 mph 53 % 0.00 in
20:58 81.2 °F 62.4 °F 29.68 in WNW 2.0 mph 2.0 mph 53 % 0.00 in
21:03 81.1 °F 62.3 °F 29.68 in NW 1.2 mph 1.2 mph 53 % 0.00 in
21:08 80.7 °F 62.0 °F 29.68 in NW 2.3 mph 2.3 mph 53 % 0.00 in
21:13 80.5 °F 61.3 °F 29.69 in NW 2.0 mph 2.0 mph 52 % 0.00 in
21:18 80.4 °F 60.1 °F 29.69 in NNW 2.3 mph 2.3 mph 50 % 0.00 in
21:23 80.5 °F 59.0 °F 29.69 in NW 3.5 mph 3.5 mph 48 % 0.00 in
21:28 80.4 °F 58.9 °F 29.69 in WNW 2.3 mph 2.3 mph 48 % 0.00 in
21:33 80.1 °F 58.0 °F 29.69 in WNW 3.5 mph 3.5 mph 47 % 0.00 in
21:38 79.9 °F 57.9 °F 29.70 in NW 3.5 mph 3.5 mph 47 % 0.00 in
21:43 79.6 °F 57.6 °F 29.70 in NW 2.3 mph 2.3 mph 47 % 0.00 in
21:48 79.3 °F 57.3 °F 29.70 in NNW 2.3 mph 2.3 mph 47 % 0.00 in
21:53 78.9 °F 57.0 °F 29.70 in WNW 2.0 mph 2.0 mph 47 % 0.00 in
21:58 78.6 °F 57.3 °F 29.70 in NW 2.3 mph 2.3 mph 48 % 0.00 in
22:03 78.3 °F 57.0 °F 29.70 in NW 1.2 mph   48 % 0.00 in
22:04 78.3 °F 57.0 °F 29.70 in Calm     48 % 0.00 in
22:09 78.1 °F 56.8 °F 29.70 in NW 1.0 mph 1.0 mph 48 % 0.00 in
22:14 77.9 °F 56.6 °F 29.70 in WNW 2.0 mph 2.0 mph 48 % 0.00 in
22:19 77.7 °F 55.9 °F 29.70 in NW 2.3 mph 2.3 mph 47 % 0.00 in
22:24 77.5 °F 55.1 °F 29.70 in WNW 3.5 mph 3.5 mph 46 % 0.00 in
22:29 77.3 °F 54.9 °F 29.70 in NW 2.3 mph 2.3 mph 46 % 0.00 in
22:34 77.2 °F 54.8 °F 29.70 in WNW 3.5 mph 3.5 mph 46 % 0.00 in
22:39 77.1 °F 54.1 °F 29.70 in NNW 3.5 mph 3.5 mph 45 % 0.00 in
22:44 77.0 °F 54.0 °F 29.70 in WNW 3.0 mph 3.0 mph 45 % 0.00 in
22:49 76.8 °F 53.8 °F 29.71 in NW 2.3 mph 2.3 mph 45 % 0.00 in
22:54 76.5 °F 54.2 °F 29.71 in NNW 3.0 mph 3.0 mph 46 % 0.00 in
22:59 76.2 °F 53.9 °F 29.71 in WNW 3.5 mph 3.5 mph 46 % 0.00 in
23:04 75.9 °F 54.2 °F 29.71 in NW 2.3 mph 2.3 mph 47 % 0.00 in
23:09 75.5 °F 53.9 °F 29.71 in NW 2.3 mph 2.3 mph 47 % 0.00 in
23:14 75.1 °F 54.1 °F 29.71 in North 2.3 mph   48 % 0.00 in
23:19 74.9 °F 53.9 °F 29.71 in WSW 2.3 mph   48 % 0.00 in
23:24 74.7 °F 54.3 °F 29.71 in NNW 1.2 mph   49 % 0.00 in
23:29 74.5 °F 54.1 °F 29.72 in Calm     49 % 0.00 in
23:34 74.3 °F 53.9 °F 29.72 in Calm   0.1 mph 49 % 0.00 in
23:39 73.8 °F 54.0 °F 29.72 in Calm     50 % 0.00 in
23:44 73.5 °F 54.8 °F 29.72 in Calm     52 % 0.00 in
23:49 73.2 °F 54.5 °F 29.72 in Calm     52 % 0.00 in
23:54 73.0 °F 55.4 °F 29.72 in Calm     54 % 0.00 in
23:59 72.6 °F 55.5 °F 29.72 in Calm     55 % 0.00 in
Park Place, Exeter, Tulare County, California, USA
Compliments of Weather Underground - 2.75 mb